createdAt,value
2018-06-08T00:00:43.000Z,26.29
2018-06-08T00:10:43.000Z,26.25
2018-06-08T00:20:43.000Z,26.37
2018-06-08T00:30:43.000Z,26.44
2018-06-08T00:40:43.000Z,26.24
2018-06-08T00:50:43.000Z,26
2018-06-08T01:00:43.000Z,26
2018-06-08T01:10:43.000Z,26.11
2018-06-08T01:20:43.000Z,25.97
2018-06-08T01:30:43.000Z,25.74
2018-06-08T01:40:43.000Z,25.94
2018-06-08T01:50:43.000Z,25.79
2018-06-08T02:00:43.000Z,26.06
2018-06-08T02:10:43.000Z,26.03
2018-06-08T02:20:43.000Z,26.03
2018-06-08T02:30:43.000Z,25.99
2018-06-08T02:40:43.000Z,25.98
2018-06-08T02:50:43.000Z,25.97
2018-06-08T03:00:43.000Z,25.96
2018-06-08T03:10:43.000Z,25.95
2018-06-08T03:20:43.000Z,25.89
2018-06-08T03:30:44.000Z,25.94
2018-06-08T03:40:43.000Z,25.91
2018-06-08T03:50:43.000Z,25.87
2018-06-08T04:00:43.000Z,25.87
2018-06-08T04:10:44.000Z,25.84
2018-06-08T04:20:44.000Z,25.84
2018-06-08T04:30:43.000Z,25.79
2018-06-08T04:40:43.000Z,25.81
2018-06-08T04:50:43.000Z,25.79
2018-06-08T05:00:43.000Z,25.77
2018-06-08T05:10:43.000Z,25.81
2018-06-08T05:20:43.000Z,25.82
2018-06-08T05:30:43.000Z,25.8
2018-06-08T05:40:43.000Z,25.85
2018-06-08T05:50:43.000Z,25.82
2018-06-08T06:00:43.000Z,25.82
2018-06-08T06:10:44.000Z,25.82
2018-06-08T06:20:44.000Z,25.82
2018-06-08T06:30:45.000Z,25.82
2018-06-08T06:40:44.000Z,25.86
2018-06-08T06:50:44.000Z,25.86
2018-06-08T07:00:44.000Z,25.67
2018-06-08T07:10:44.000Z,25.56
2018-06-08T07:20:44.000Z,25.94
2018-06-08T07:30:44.000Z,26
2018-06-08T07:40:44.000Z,26.02
2018-06-08T07:50:44.000Z,26.06
2018-06-08T08:00:44.000Z,26.05
2018-06-08T08:10:44.000Z,26.02
2018-06-08T08:20:44.000Z,26.06
2018-06-08T08:30:44.000Z,26.05
2018-06-08T08:40:44.000Z,25.96
2018-06-08T08:50:44.000Z,25.87
2018-06-08T09:00:44.000Z,25.75
2018-06-08T09:10:44.000Z,25.61
2018-06-08T09:20:45.000Z,25.8
2018-06-08T09:30:44.000Z,25.93
2018-06-08T09:40:44.000Z,25.9
2018-06-08T09:50:44.000Z,25.94
2018-06-08T10:00:44.000Z,25.86
2018-06-08T10:10:44.000Z,25.62
2018-06-08T10:20:44.000Z,25.82
2018-06-08T10:30:44.000Z,25.89
2018-06-08T10:40:44.000Z,25.81
2018-06-08T10:50:44.000Z,25.82
2018-06-08T11:00:44.000Z,25.76
2018-06-08T11:10:44.000Z,25.77
2018-06-08T11:20:44.000Z,25.77
2018-06-08T11:30:44.000Z,25.56
2018-06-08T11:40:44.000Z,25.64
2018-06-08T11:50:44.000Z,25.62
2018-06-08T12:00:44.000Z,25.61
2018-06-08T12:10:44.000Z,25.57
2018-06-08T12:20:44.000Z,25.58
2018-06-08T12:30:44.000Z,25.52
2018-06-08T12:40:44.000Z,25.6
2018-06-08T12:50:45.000Z,25.63
2018-06-08T13:00:44.000Z,25.62
2018-06-08T13:10:44.000Z,25.6
2018-06-08T13:20:44.000Z,25.57
2018-06-08T13:30:44.000Z,25.55
2018-06-08T13:40:44.000Z,25.68
2018-06-08T13:50:44.000Z,25.69
2018-06-08T14:00:44.000Z,25.75
2018-06-08T14:10:44.000Z,25.8
2018-06-08T14:20:44.000Z,25.75
2018-06-08T14:30:45.000Z,25.75
2018-06-08T14:40:45.000Z,25.8
2018-06-08T14:50:45.000Z,25.72
2018-06-08T15:00:45.000Z,25.89
2018-06-08T15:10:45.000Z,25.81
2018-06-08T15:20:45.000Z,25.91
2018-06-08T15:30:45.000Z,25.91
2018-06-08T15:40:45.000Z,25.93
2018-06-08T15:50:45.000Z,25.97
2018-06-08T16:00:45.000Z,26.04
2018-06-08T16:10:46.000Z,26.02
2018-06-08T16:20:45.000Z,26.03
2018-06-08T16:30:46.000Z,26
2018-06-08T16:40:45.000Z,26.03
2018-06-08T16:50:48.000Z,26.03
2018-06-08T17:00:45.000Z,26.05
2018-06-08T17:10:45.000Z,26.06
2018-06-08T17:20:46.000Z,26.09
2018-06-08T17:30:45.000Z,26.11
2018-06-08T17:40:45.000Z,26.09
2018-06-08T17:50:45.000Z,26.09
2018-06-08T18:00:45.000Z,26.1
2018-06-08T18:10:47.000Z,26.09
2018-06-08T18:20:45.000Z,26.05
2018-06-08T18:30:46.000Z,26.02
2018-06-08T18:40:47.000Z,26.06
2018-06-08T18:50:46.000Z,26.03
2018-06-08T19:00:46.000Z,26.05
2018-06-08T19:10:45.000Z,26.02
2018-06-08T19:20:45.000Z,26.02
2018-06-08T19:30:45.000Z,26
2018-06-08T19:40:45.000Z,25.98
2018-06-08T19:50:45.000Z,25.99
2018-06-08T20:00:47.000Z,25.94
2018-06-08T20:10:45.000Z,25.93
2018-06-08T20:20:45.000Z,25.91
2018-06-08T20:30:45.000Z,25.9
2018-06-08T20:40:45.000Z,25.87
2018-06-08T20:50:46.000Z,25.82
2018-06-08T21:00:47.000Z,25.83
2018-06-08T21:10:45.000Z,25.78
2018-06-08T21:20:45.000Z,25.77
2018-06-08T21:30:45.000Z,25.71
2018-06-08T21:40:45.000Z,25.71
2018-06-08T21:50:45.000Z,25.68
2018-06-08T22:00:45.000Z,25.63
2018-06-08T22:10:49.000Z,25.58
2018-06-08T22:20:46.000Z,25.55
2018-06-08T22:30:45.000Z,25.52
2018-06-08T22:40:46.000Z,25.49
2018-06-08T22:50:46.000Z,25.47
2018-06-08T23:00:46.000Z,25.42
2018-06-08T23:10:46.000Z,25.4
2018-06-08T23:20:46.000Z,25.36
2018-06-08T23:30:46.000Z,25.33
2018-06-08T23:40:46.000Z,25.31
2018-06-08T23:50:47.000Z,25.23
